Time;durP1;ratioP1;P1;durP2;ratioP2;P2;SDS_P1;SDS_P2;PMS_P1;PMS_P2;Temp;Humidity;BMP_temperature;BMP_pressure;BME280_temperature;BME280_humidity;BME280_pressure;Samples;Min_cycle;Max_cycle;Signal;HPM_P1;HPM_P2
2023/08/08 00:01:19;;;;;;;2.27;1.50;;;;;;;;;;6226261;28;20287;-67
2023/08/08 00:04:20;;;;;;;4.70;1.70;;;;;;;;;;6232939;28;20195;-67
2023/08/08 00:07:21;;;;;;;1.70;1.20;;;;;;;;;;6204150;28;20641;-67
2023/08/08 00:10:22;;;;;;;2.57;1.37;;;;;;;;;;6225429;28;20194;-67
2023/08/08 00:13:23;;;;;;;1.23;1.13;;;;;;;;;;6209612;28;20193;-67
2023/08/08 00:16:24;;;;;;;3.30;1.27;;;;;;;;;;6211592;28;20261;-67
2023/08/08 00:19:25;;;;;;;1.73;1.13;;;;;;;;;;6231903;28;20198;-67
2023/08/08 00:22:27;;;;;;;3.30;1.20;;;;;;;;;;6226411;28;20199;-68
2023/08/08 00:25:28;;;;;;;3.13;1.40;;;;;;;;;;6219471;28;20215;-67
2023/08/08 00:28:29;;;;;;;3.03;1.23;;;;;;;;;;6220262;28;20197;-67
2023/08/08 00:31:30;;;;;;;4.27;1.20;;;;;;;;;;6215647;28;20231;-67
2023/08/08 00:34:31;;;;;;;1.53;1.33;;;;;;;;;;6217462;28;20259;-68
2023/08/08 00:37:32;;;;;;;1.50;1.30;;;;;;;;;;6198405;28;20234;-65
2023/08/08 00:40:33;;;;;;;1.40;1.30;;;;;;;;;;6230629;28;20278;-65
2023/08/08 00:43:34;;;;;;;3.53;1.23;;;;;;;;;;6227889;28;20222;-65
2023/08/08 00:46:35;;;;;;;2.23;1.53;;;;;;;;;;6217288;28;20237;-65
2023/08/08 00:49:37;;;;;;;4.90;1.20;;;;;;;;;;6216319;28;20199;-65
2023/08/08 00:52:39;;;;;;;1.70;1.37;;;;;;;;;;6213691;28;20290;-65
2023/08/08 00:55:40;;;;;;;7.13;1.20;;;;;;;;;;6212673;28;20254;-65
2023/08/08 00:58:41;;;;;;;2.27;1.10;;;;;;;;;;6201828;28;20191;-65
2023/08/08 01:01:42;;;;;;;1.50;1.40;;;;;;;;;;6234627;28;20203;-65
2023/08/08 01:04:43;;;;;;;2.07;1.23;;;;;;;;;;6217124;28;20341;-65
2023/08/08 01:07:44;;;;;;;1.87;1.20;;;;;;;;;;6205849;28;20257;-65
2023/08/08 01:10:45;;;;;;;1.57;1.20;;;;;;;;;;6221635;28;20194;-65
2023/08/08 01:13:46;;;;;;;1.73;0.90;;;;;;;;;;6226664;28;20237;-65
2023/08/08 01:16:48;;;;;;;2.40;1.27;;;;;;;;;;6201969;28;20190;-65
2023/08/08 01:19:49;;;;;;;2.67;1.30;;;;;;;;;;6222217;28;20195;-65
2023/08/08 01:22:59;;;;;;;2.23;1.30;;;;;;;;;;6223242;28;20205;-65
2023/08/08 01:26:00;;;;;;;2.60;1.20;;;;;;;;;;6229174;28;20298;-66
2023/08/08 01:29:01;;;;;;;1.83;1.00;;;;;;;;;;6194138;28;20291;-65
2023/08/08 01:32:02;;;;;;;2.13;1.57;;;;;;;;;;6228630;28;20191;-65
2023/08/08 01:35:03;;;;;;;2.93;1.40;;;;;;;;;;6222096;28;20187;-65
2023/08/08 01:38:13;;;;;;;1.07;0.97;;;;;;;;;;6216077;28;20239;-65
2023/08/08 01:41:14;;;;;;;1.53;1.10;;;;;;;;;;6222599;28;20251;-65
2023/08/08 01:44:17;;;;;;;1.03;0.80;;;;;;;;;;6217156;28;20192;-65
2023/08/08 01:47:18;;;;;;;1.10;1.00;;;;;;;;;;6200512;28;20226;-65
2023/08/08 01:50:21;;;;;;;1.50;1.10;;;;;;;;;;6228809;28;20219;-65
2023/08/08 01:53:22;;;;;;;5.17;1.10;;;;;;;;;;6222302;28;20215;-65
2023/08/08 01:56:23;;;;;;;2.87;1.43;;;;;;;;;;6224449;28;20205;-66
2023/08/08 01:59:24;;;;;;;1.63;0.97;;;;;;;;;;6237599;28;20194;-66
2023/08/08 02:02:25;;;;;;;1.83;1.30;;;;;;;;;;6222412;28;20202;-66
2023/08/08 02:05:26;;;;;;;3.00;1.20;;;;;;;;;;6227330;28;20242;-65
2023/08/08 02:08:27;;;;;;;2.67;1.47;;;;;;;;;;6197015;28;20183;-65
2023/08/08 02:11:28;;;;;;;3.70;1.30;;;;;;;;;;6215286;28;20198;-66
2023/08/08 02:14:29;;;;;;;4.43;1.20;;;;;;;;;;6237811;28;20190;-65
2023/08/08 02:17:30;;;;;;;1.27;0.90;;;;;;;;;;6203545;28;20230;-65
2023/08/08 02:20:31;;;;;;;2.37;1.20;;;;;;;;;;6221932;28;20194;-65
2023/08/08 02:23:32;;;;;;;1.37;1.27;;;;;;;;;;6221427;28;20203;-65
2023/08/08 02:26:33;;;;;;;2.17;1.00;;;;;;;;;;6218016;28;20214;-65
2023/08/08 02:29:34;;;;;;;3.63;1.20;;;;;;;;;;6216346;28;20180;-66
2023/08/08 02:32:35;;;;;;;1.83;1.27;;;;;;;;;;6202217;28;20198;-65
2023/08/08 02:35:37;;;;;;;3.83;1.30;;;;;;;;;;6221905;28;20203;-65
2023/08/08 02:38:38;;;;;;;2.37;1.20;;;;;;;;;;6218147;28;20309;-65
2023/08/08 02:41:39;;;;;;;2.93;1.03;;;;;;;;;;6223216;28;20195;-65
2023/08/08 02:44:40;;;;;;;1.17;1.07;;;;;;;;;;6222900;28;20263;-66
2023/08/08 02:47:42;;;;;;;1.33;1.00;;;;;;;;;;6222775;28;20314;-65
2023/08/08 02:50:43;;;;;;;3.03;1.17;;;;;;;;;;6222093;28;20207;-65
2023/08/08 02:53:44;;;;;;;0.87;0.83;;;;;;;;;;6226975;28;20217;-65
2023/08/08 02:56:45;;;;;;;1.27;1.10;;;;;;;;;;6222325;28;20291;-65
2023/08/08 02:59:46;;;;;;;1.70;0.97;;;;;;;;;;6229861;28;20282;-65
2023/08/08 03:02:47;;;;;;;2.80;1.00;;;;;;;;;;6227919;28;20221;-66
2023/08/08 03:05:48;;;;;;;2.10;1.40;;;;;;;;;;6203294;28;20210;-66
2023/08/08 03:08:49;;;;;;;3.97;1.27;;;;;;;;;;6219664;28;20225;-64
2023/08/08 03:11:50;;;;;;;3.07;1.10;;;;;;;;;;6220310;28;20194;-66
2023/08/08 03:14:51;;;;;;;3.30;1.47;;;;;;;;;;6238528;28;20187;-65
2023/08/08 03:17:52;;;;;;;1.10;0.90;;;;;;;;;;6215851;28;20200;-66
2023/08/08 03:20:53;;;;;;;1.27;1.10;;;;;;;;;;6219214;28;20199;-66
2023/08/08 03:23:54;;;;;;;1.00;0.80;;;;;;;;;;6233990;28;20276;-65
2023/08/08 03:26:55;;;;;;;3.03;1.20;;;;;;;;;;6212185;28;20251;-66
2023/08/08 03:29:56;;;;;;;1.83;1.00;;;;;;;;;;6199540;28;20195;-65
2023/08/08 03:32:57;;;;;;;2.00;1.10;;;;;;;;;;6228856;28;20197;-65
2023/08/08 03:35:58;;;;;;;1.37;1.23;;;;;;;;;;6204391;28;20205;-65
2023/08/08 03:38:59;;;;;;;3.30;1.10;;;;;;;;;;6218497;28;20238;-64
2023/08/08 03:42:01;;;;;;;1.80;1.17;;;;;;;;;;6222039;28;20191;-65
2023/08/08 03:45:02;;;;;;;1.10;1.00;;;;;;;;;;6237276;28;20285;-65
2023/08/08 03:48:03;;;;;;;1.27;1.10;;;;;;;;;;6236861;28;20289;-65
2023/08/08 03:51:04;;;;;;;2.50;1.20;;;;;;;;;;6213380;28;20202;-65
2023/08/08 03:54:05;;;;;;;2.50;1.13;;;;;;;;;;6214781;28;20196;-65
2023/08/08 03:57:06;;;;;;;0.90;0.90;;;;;;;;;;6223841;28;20246;-65
2023/08/08 04:00:08;;;;;;;2.67;1.23;;;;;;;;;;6214994;28;20257;-66
2023/08/08 04:03:09;;;;;;;1.67;1.57;;;;;;;;;;6219952;28;20199;-65
2023/08/08 04:06:10;;;;;;;0.90;0.90;;;;;;;;;;6220247;28;20229;-65
2023/08/08 04:09:11;;;;;;;2.87;1.13;;;;;;;;;;6212543;28;20191;-65
2023/08/08 04:12:12;;;;;;;3.63;1.30;;;;;;;;;;6225662;28;20243;-66
2023/08/08 04:15:13;;;;;;;1.23;1.03;;;;;;;;;;6216338;28;20199;-65
2023/08/08 04:18:14;;;;;;;4.87;1.20;;;;;;;;;;6217201;28;20214;-67
2023/08/08 04:21:15;;;;;;;1.27;1.17;;;;;;;;;;6217236;28;20279;-65
2023/08/08 04:24:16;;;;;;;2.17;1.40;;;;;;;;;;6197789;28;20242;-66
2023/08/08 04:27:18;;;;;;;2.58;1.48;;;;;;;;;;6226784;28;20764;-66
2023/08/08 04:30:19;;;;;;;2.00;1.40;;;;;;;;;;6196583;28;20203;-66
2023/08/08 04:33:20;;;;;;;1.63;1.20;;;;;;;;;;6218285;28;20202;-65
2023/08/08 04:36:21;;;;;;;1.30;1.20;;;;;;;;;;6220203;28;20195;-65
2023/08/08 04:39:22;;;;;;;1.47;1.23;;;;;;;;;;6219507;28;20265;-65
2023/08/08 04:42:23;;;;;;;3.97;1.30;;;;;;;;;;6238075;28;20199;-68
2023/08/08 04:45:24;;;;;;;1.60;1.40;;;;;;;;;;6218316;28;20218;-68
2023/08/08 04:48:25;;;;;;;4.17;1.53;;;;;;;;;;6238052;28;20313;-67
2023/08/08 04:51:26;;;;;;;2.30;1.37;;;;;;;;;;6230214;28;20194;-67
2023/08/08 04:54:27;;;;;;;2.53;1.33;;;;;;;;;;6219521;28;20241;-68
2023/08/08 04:57:28;;;;;;;5.47;1.40;;;;;;;;;;6223061;28;20188;-71
2023/08/08 05:00:29;;;;;;;3.00;1.50;;;;;;;;;;6224949;28;20276;-68
2023/08/08 05:03:30;;;;;;;1.53;1.20;;;;;;;;;;6224126;28;20244;-67
2023/08/08 05:06:31;;;;;;;1.57;1.20;;;;;;;;;;6224401;28;20226;-69
2023/08/08 05:09:32;;;;;;;3.03;1.60;;;;;;;;;;6231134;28;20267;-66
2023/08/08 05:12:33;;;;;;;1.67;1.40;;;;;;;;;;6214404;28;20199;-67
2023/08/08 05:15:34;;;;;;;1.13;1.03;;;;;;;;;;6216279;28;20202;-66
2023/08/08 05:18:35;;;;;;;1.47;1.37;;;;;;;;;;6207474;28;20201;-67
2023/08/08 05:21:37;;;;;;;1.40;1.10;;;;;;;;;;6224175;28;20199;-67
2023/08/08 05:24:38;;;;;;;2.23;1.20;;;;;;;;;;6209166;28;20192;-70
2023/08/08 05:27:39;;;;;;;2.53;1.27;;;;;;;;;;6235346;28;20261;-73
2023/08/08 05:30:40;;;;;;;6.17;1.50;;;;;;;;;;6223129;28;20255;-68
2023/08/08 05:33:41;;;;;;;2.47;1.40;;;;;;;;;;6227763;28;20194;-65
2023/08/08 05:36:42;;;;;;;1.33;1.13;;;;;;;;;;6221738;28;20199;-66
2023/08/08 05:39:44;;;;;;;2.30;1.47;;;;;;;;;;6214871;28;20214;-66
2023/08/08 05:42:45;;;;;;;1.87;1.67;;;;;;;;;;6226464;28;20205;-66
2023/08/08 05:45:46;;;;;;;1.43;1.33;;;;;;;;;;6221142;28;20227;-66
2023/08/08 05:48:47;;;;;;;3.27;1.37;;;;;;;;;;6216943;28;20191;-66
2023/08/08 05:51:48;;;;;;;2.30;1.50;;;;;;;;;;6220900;28;20245;-66
2023/08/08 05:54:49;;;;;;;2.17;1.13;;;;;;;;;;6224500;28;20231;-66
2023/08/08 05:57:50;;;;;;;2.07;1.50;;;;;;;;;;6237101;28;20196;-66
2023/08/08 06:00:51;;;;;;;1.73;1.50;;;;;;;;;;6220791;28;20207;-67
2023/08/08 06:03:52;;;;;;;1.80;1.20;;;;;;;;;;6228813;28;20187;-65
2023/08/08 06:06:53;;;;;;;2.30;1.50;;;;;;;;;;6237208;28;20234;-65
2023/08/08 06:09:54;;;;;;;1.50;1.23;;;;;;;;;;6211820;28;20203;-64
2023/08/08 06:12:55;;;;;;;2.90;1.37;;;;;;;;;;6220037;28;20195;-66
2023/08/08 06:15:57;;;;;;;2.63;1.30;;;;;;;;;;6228362;28;20195;-65
2023/08/08 06:18:58;;;;;;;2.97;1.60;;;;;;;;;;6220984;28;20266;-64
2023/08/08 06:21:59;;;;;;;2.97;1.23;;;;;;;;;;6224039;28;20199;-66
2023/08/08 06:25:00;;;;;;;2.03;1.43;;;;;;;;;;6231744;28;20289;-66
2023/08/08 06:28:01;;;;;;;2.90;1.60;;;;;;;;;;6221513;28;20203;-66
2023/08/08 06:31:02;;;;;;;1.70;1.60;;;;;;;;;;6233361;28;20283;-66
2023/08/08 06:34:03;;;;;;;2.57;1.20;;;;;;;;;;6208276;28;20277;-66
2023/08/08 06:37:04;;;;;;;2.27;1.23;;;;;;;;;;6200202;28;20282;-66
2023/08/08 06:40:07;;;;;;;1.70;1.50;;;;;;;;;;6231359;28;20215;-66
2023/08/08 06:43:08;;;;;;;1.83;1.57;;;;;;;;;;6233485;28;20203;-66
2023/08/08 06:46:09;;;;;;;5.10;1.70;;;;;;;;;;6220973;28;20223;-66
2023/08/08 06:49:10;;;;;;;1.97;1.40;;;;;;;;;;6234462;28;20191;-66
2023/08/08 06:52:11;;;;;;;2.33;1.40;;;;;;;;;;6225100;28;20223;-67
2023/08/08 06:55:12;;;;;;;2.40;1.67;;;;;;;;;;6229139;28;20198;-66
2023/08/08 06:58:13;;;;;;;1.90;1.40;;;;;;;;;;6220571;28;20282;-66
2023/08/08 07:01:14;;;;;;;1.40;1.30;;;;;;;;;;6216084;28;20337;-66
2023/08/08 07:04:15;;;;;;;1.87;1.40;;;;;;;;;;6231155;28;20194;-66
2023/08/08 07:07:16;;;;;;;3.47;1.30;;;;;;;;;;6229847;28;20222;-66
2023/08/08 07:10:18;;;;;;;1.63;1.53;;;;;;;;;;6229013;28;20214;-66
2023/08/08 07:13:19;;;;;;;1.60;1.30;;;;;;;;;;6220803;28;20256;-66
2023/08/08 07:16:20;;;;;;;1.57;1.47;;;;;;;;;;6232905;28;20195;-66
2023/08/08 07:19:21;;;;;;;4.20;1.80;;;;;;;;;;6223931;28;20203;-66
2023/08/08 07:22:22;;;;;;;2.27;1.83;;;;;;;;;;6224346;28;20201;-66
2023/08/08 07:25:23;;;;;;;3.37;1.80;;;;;;;;;;6200025;28;20202;-66
2023/08/08 07:28:25;;;;;;;3.20;1.87;;;;;;;;;;6223569;28;20249;-66
2023/08/08 07:31:26;;;;;;;3.40;1.53;;;;;;;;;;6220433;28;20262;-66
2023/08/08 07:34:27;;;;;;;2.07;1.57;;;;;;;;;;6203585;28;20603;-66
2023/08/08 07:37:28;;;;;;;3.40;1.50;;;;;;;;;;6215019;28;20292;-66
2023/08/08 07:40:29;;;;;;;2.80;1.43;;;;;;;;;;6206434;28;20206;-66
2023/08/08 07:43:30;;;;;;;2.80;1.60;;;;;;;;;;6232491;28;20225;-66
2023/08/08 07:46:31;;;;;;;2.07;1.40;;;;;;;;;;6206094;28;20235;-66
2023/08/08 07:49:32;;;;;;;1.40;1.30;;;;;;;;;;6217089;28;20187;-66
2023/08/08 07:52:33;;;;;;;1.93;1.43;;;;;;;;;;6202622;28;20218;-66
2023/08/08 07:55:34;;;;;;;1.30;1.20;;;;;;;;;;6202196;28;20210;-66
2023/08/08 07:58:35;;;;;;;1.40;1.10;;;;;;;;;;6198912;28;20195;-66
2023/08/08 08:01:36;;;;;;;1.33;1.20;;;;;;;;;;6232081;28;20210;-66
2023/08/08 08:04:37;;;;;;;1.63;1.43;;;;;;;;;;6233626;28;20191;-66
2023/08/08 08:07:39;;;;;;;2.50;1.40;;;;;;;;;;6200932;28;21147;-66
2023/08/08 08:10:40;;;;;;;1.27;1.00;;;;;;;;;;6217749;28;20197;-66
2023/08/08 08:13:41;;;;;;;2.70;1.37;;;;;;;;;;6230416;28;20183;-66
2023/08/08 08:16:42;;;;;;;1.87;1.30;;;;;;;;;;6228077;28;20204;-66
2023/08/08 08:19:43;;;;;;;2.23;1.40;;;;;;;;;;6222164;28;20207;-66
2023/08/08 08:22:44;;;;;;;1.27;1.17;;;;;;;;;;6225148;28;20199;-66
2023/08/08 08:25:45;;;;;;;1.03;0.93;;;;;;;;;;6221695;28;20299;-66
2023/08/08 08:28:46;;;;;;;2.53;1.17;;;;;;;;;;6218437;28;20218;-66
2023/08/08 08:31:47;;;;;;;1.97;1.30;;;;;;;;;;6223108;28;20203;-66
2023/08/08 08:34:48;;;;;;;1.83;1.23;;;;;;;;;;6200558;28;20196;-66
2023/08/08 08:37:50;;;;;;;1.30;1.20;;;;;;;;;;6230671;28;20240;-66
2023/08/08 08:40:54;;;;;;;1.60;1.20;;;;;;;;;;6209411;28;20191;-66
2023/08/08 08:43:55;;;;;;;3.33;1.40;;;;;;;;;;6238904;28;20202;-66
2023/08/08 08:46:58;;;;;;;1.67;1.47;;;;;;;;;;6224513;28;20223;-66
2023/08/08 08:50:01;;;;;;;2.33;1.30;;;;;;;;;;6224299;28;20349;-66
2023/08/08 08:53:02;;;;;;;3.20;1.40;;;;;;;;;;6222661;28;20248;-66
2023/08/08 08:56:03;;;;;;;1.53;1.13;;;;;;;;;;6226381;28;20199;-66
2023/08/08 08:59:04;;;;;;;1.73;1.30;;;;;;;;;;6218069;28;20200;-66
2023/08/08 09:02:06;;;;;;;1.30;1.20;;;;;;;;;;6233867;28;20203;-66
2023/08/08 09:05:07;;;;;;;1.73;1.30;;;;;;;;;;6219284;28;20250;-66
2023/08/08 09:08:09;;;;;;;1.30;1.20;;;;;;;;;;6204918;28;20231;-66
2023/08/08 09:11:10;;;;;;;1.30;1.20;;;;;;;;;;6229311;28;20200;-66
2023/08/08 09:14:18;;;;;;;2.13;1.20;;;;;;;;;;6208338;28;20191;-67
2023/08/08 09:17:19;;;;;;;1.30;1.00;;;;;;;;;;6232531;28;20193;-67
2023/08/08 09:20:20;;;;;;;2.10;1.20;;;;;;;;;;6211187;28;20287;-68
2023/08/08 09:23:21;;;;;;;1.53;1.20;;;;;;;;;;6219256;28;20215;-67
2023/08/08 09:26:22;;;;;;;2.07;1.13;;;;;;;;;;6223542;28;20290;-67
2023/08/08 09:29:24;;;;;;;1.60;0.97;;;;;;;;;;6223653;28;20425;-67
2023/08/08 09:32:29;;;;;;;4.83;1.50;;;;;;;;;;6220822;28;20200;-67
2023/08/08 09:35:31;;;;;;;2.47;1.30;;;;;;;;;;6233017;28;20187;-67
2023/08/08 09:38:32;;;;;;;1.60;1.40;;;;;;;;;;6228388;28;20235;-67
2023/08/08 09:41:33;;;;;;;1.27;1.10;;;;;;;;;;6218642;28;20194;-67
2023/08/08 09:44:35;;;;;;;2.60;1.30;;;;;;;;;;6215538;28;20192;-67
2023/08/08 09:47:36;;;;;;;2.10;1.30;;;;;;;;;;6213450;28;20231;-67
2023/08/08 09:50:37;;;;;;;2.17;1.47;;;;;;;;;;6220063;28;20267;-67
2023/08/08 09:53:38;;;;;;;1.47;1.13;;;;;;;;;;6204494;28;20286;-68
2023/08/08 09:56:40;;;;;;;1.90;1.03;;;;;;;;;;6206648;28;20199;-68
2023/08/08 09:59:41;;;;;;;1.30;1.20;;;;;;;;;;6228659;28;20192;-68
2023/08/08 10:02:46;;;;;;;1.33;1.10;;;;;;;;;;6220114;28;20196;-68
2023/08/08 10:05:47;;;;;;;1.70;1.30;;;;;;;;;;6216502;28;20223;-68
2023/08/08 10:08:48;;;;;;;1.93;1.40;;;;;;;;;;6216515;28;20199;-68
2023/08/08 10:11:49;;;;;;;3.37;1.47;;;;;;;;;;6219924;28;20195;-69
2023/08/08 10:14:51;;;;;;;1.13;1.03;;;;;;;;;;6224478;28;20184;-68
2023/08/08 10:17:54;;;;;;;1.47;1.20;;;;;;;;;;6237587;28;20203;-68
2023/08/08 10:20:55;;;;;;;2.13;1.10;;;;;;;;;;6218323;28;20231;-68
2023/08/08 10:24:06;;;;;;;1.87;1.00;;;;;;;;;;6220356;28;20209;-68
2023/08/08 10:27:07;;;;;;;1.53;1.23;;;;;;;;;;6214701;28;20220;-68
2023/08/08 10:30:10;;;;;;;1.43;1.17;;;;;;;;;;6226340;28;20191;-67
2023/08/08 10:33:22;;;;;;;1.23;1.00;;;;;;;;;;6204853;28;20246;-68
2023/08/08 10:36:23;;;;;;;1.40;1.30;;;;;;;;;;6229549;28;20196;-68
2023/08/08 10:39:25;;;;;;;1.63;1.27;;;;;;;;;;6204382;28;20235;-68
2023/08/08 10:42:27;;;;;;;1.20;0.90;;;;;;;;;;6229502;28;20265;-68
2023/08/08 10:45:30;;;;;;;1.33;1.23;;;;;;;;;;6213573;28;20195;-67
2023/08/08 10:48:31;;;;;;;3.90;1.60;;;;;;;;;;6228491;28;20187;-68
2023/08/08 10:51:34;;;;;;;2.00;1.40;;;;;;;;;;6200414;28;20211;-68
2023/08/08 10:54:35;;;;;;;2.20;1.43;;;;;;;;;;6230080;28;20187;-65
2023/08/08 10:57:36;;;;;;;2.13;1.30;;;;;;;;;;6218860;28;20222;-65
2023/08/08 11:00:41;;;;;;;1.47;1.20;;;;;;;;;;6207226;28;20231;-69
2023/08/08 11:03:43;;;;;;;1.23;1.10;;;;;;;;;;6226958;28;20200;-68
2023/08/08 11:06:44;;;;;;;1.00;1.00;;;;;;;;;;6224111;28;20224;-66
2023/08/08 11:09:45;;;;;;;2.17;0.97;;;;;;;;;;6218931;28;20205;-67
2023/08/08 11:12:54;;;;;;;1.73;1.13;;;;;;;;;;6200985;28;20186;-68
2023/08/08 11:15:55;;;;;;;0.90;0.90;;;;;;;;;;6216162;28;20200;-69
2023/08/08 11:18:56;;;;;;;2.43;1.00;;;;;;;;;;6220298;28;20192;-67
2023/08/08 11:21:57;;;;;;;1.40;1.00;;;;;;;;;;6229956;28;20225;-66
2023/08/08 11:25:03;;;;;;;1.17;0.70;;;;;;;;;;6205899;28;20426;-66
2023/08/08 11:28:05;;;;;;;1.10;1.00;;;;;;;;;;6220574;28;20223;-64
2023/08/08 11:31:08;;;;;;;1.13;1.03;;;;;;;;;;6218416;28;20282;-67
2023/08/08 11:34:10;;;;;;;1.03;0.90;;;;;;;;;;6235625;28;20184;-67
2023/08/08 11:37:11;;;;;;;1.93;1.10;;;;;;;;;;6215344;28;20235;-66
2023/08/08 11:40:13;;;;;;;1.03;0.90;;;;;;;;;;6213792;28;20223;-67
2023/08/08 11:43:14;;;;;;;1.17;1.07;;;;;;;;;;6234108;28;20196;-67
2023/08/08 11:46:17;;;;;;;2.00;1.40;;;;;;;;;;6220530;28;20301;-67
2023/08/08 11:49:18;;;;;;;1.47;1.37;;;;;;;;;;6227259;28;20194;-67
2023/08/08 11:52:19;;;;;;;0.90;0.90;;;;;;;;;;6204821;28;20206;-66
2023/08/08 11:55:22;;;;;;;1.57;0.93;;;;;;;;;;6217025;28;20187;-67
2023/08/08 11:58:25;;;;;;;1.17;1.07;;;;;;;;;;6204669;28;20194;-65
2023/08/08 12:01:26;;;;;;;1.87;1.23;;;;;;;;;;6232967;28;20191;-65
2023/08/08 12:04:27;;;;;;;1.20;1.00;;;;;;;;;;6221055;28;20237;-66
2023/08/08 12:07:32;;;;;;;0.70;0.70;;;;;;;;;;6226456;28;20211;-66
2023/08/08 12:10:33;;;;;;;1.00;0.90;;;;;;;;;;6222725;28;20203;-63
2023/08/08 12:13:36;;;;;;;0.80;0.67;;;;;;;;;;6216471;28;20191;-63
2023/08/08 12:16:43;;;;;;;2.20;0.80;;;;;;;;;;6220249;28;20646;-63
2023/08/08 12:19:47;;;;;;;2.63;1.20;;;;;;;;;;6230328;28;20226;-64
2023/08/08 12:22:48;;;;;;;2.57;0.97;;;;;;;;;;6200491;28;20203;-64
2023/08/08 12:25:50;;;;;;;1.17;1.07;;;;;;;;;;6200223;28;20219;-64
2023/08/08 12:28:53;;;;;;;1.03;1.03;;;;;;;;;;6231968;28;20198;-64
2023/08/08 12:31:54;;;;;;;1.30;0.60;;;;;;;;;;6219575;28;20253;-64
2023/08/08 12:34:56;;;;;;;0.80;0.80;;;;;;;;;;6218512;28;20203;-64
2023/08/08 12:37:57;;;;;;;1.17;0.93;;;;;;;;;;6219776;28;20288;-63
2023/08/08 12:40:58;;;;;;;0.90;0.80;;;;;;;;;;6204376;28;20195;-64
2023/08/08 12:43:59;;;;;;;1.53;0.97;;;;;;;;;;6228251;28;20260;-64
2023/08/08 12:47:00;;;;;;;3.93;1.00;;;;;;;;;;6232109;28;20210;-64
2023/08/08 12:50:01;;;;;;;2.30;0.90;;;;;;;;;;6219283;28;20194;-67
2023/08/08 12:53:03;;;;;;;0.87;0.80;;;;;;;;;;6204151;28;20191;-63
2023/08/08 12:56:04;;;;;;;0.80;0.80;;;;;;;;;;6213896;28;20195;-65
2023/08/08 12:59:05;;;;;;;1.20;0.80;;;;;;;;;;6216254;28;20195;-64
2023/08/08 13:02:08;;;;;;;1.90;0.80;;;;;;;;;;6227484;28;20252;-67
2023/08/08 13:05:09;;;;;;;2.27;0.90;;;;;;;;;;6220430;28;20194;-66
2023/08/08 13:08:12;;;;;;;0.97;0.90;;;;;;;;;;6218957;28;20219;-63
2023/08/08 13:11:14;;;;;;;0.90;0.80;;;;;;;;;;6212296;28;20180;-64
2023/08/08 13:14:16;;;;;;;1.97;1.00;;;;;;;;;;6221614;28;20190;-64
2023/08/08 13:17:17;;;;;;;3.10;0.80;;;;;;;;;;6224318;28;20249;-65
2023/08/08 13:20:18;;;;;;;2.13;0.80;;;;;;;;;;6214071;28;20199;-65
2023/08/08 13:23:19;;;;;;;1.20;1.10;;;;;;;;;;6234076;28;20291;-64
2023/08/08 13:26:20;;;;;;;0.83;0.73;;;;;;;;;;6225051;28;20211;-64
2023/08/08 13:29:21;;;;;;;1.40;0.90;;;;;;;;;;6232499;28;20236;-64
2023/08/08 13:32:22;;;;;;;1.60;0.90;;;;;;;;;;6205591;28;20195;-64
2023/08/08 13:35:23;;;;;;;0.93;0.83;;;;;;;;;;6233369;28;20187;-63
2023/08/08 13:38:24;;;;;;;2.83;0.80;;;;;;;;;;6220467;28;20234;-64
2023/08/08 13:41:25;;;;;;;0.80;0.80;;;;;;;;;;6217859;28;20198;-64
2023/08/08 13:44:27;;;;;;;0.77;0.77;;;;;;;;;;6236405;28;20187;-64
2023/08/08 13:47:28;;;;;;;0.67;0.67;;;;;;;;;;6221091;28;20222;-64
2023/08/08 13:50:29;;;;;;;0.80;0.80;;;;;;;;;;6208173;28;20183;-64
2023/08/08 13:53:30;;;;;;;1.10;0.87;;;;;;;;;;6231735;28;20183;-63
2023/08/08 13:56:31;;;;;;;2.23;0.80;;;;;;;;;;6231159;28;20202;-64
2023/08/08 13:59:32;;;;;;;0.73;0.70;;;;;;;;;;6223101;28;20198;-64
2023/08/08 14:02:33;;;;;;;0.60;0.60;;;;;;;;;;6235700;28;20191;-64
2023/08/08 14:05:34;;;;;;;0.93;0.70;;;;;;;;;;6211852;28;20194;-64
2023/08/08 14:08:35;;;;;;;2.87;0.80;;;;;;;;;;6232284;28;20199;-64
2023/08/08 14:11:36;;;;;;;1.30;0.83;;;;;;;;;;6223385;28;20198;-65
2023/08/08 14:14:37;;;;;;;1.23;0.90;;;;;;;;;;6227061;28;20196;-65
2023/08/08 14:17:38;;;;;;;1.10;0.73;;;;;;;;;;6208382;28;20217;-63
2023/08/08 14:20:39;;;;;;;1.03;0.80;;;28.10;45.20;;;;;;6198796;28;20196;-65
2023/08/08 14:23:40;;;;;;;0.80;0.80;;;;;;;;;;6214810;28;20201;-64
2023/08/08 14:26:41;;;;;;;0.80;0.80;;;;;;;;;;6210308;28;20223;-64
2023/08/08 14:29:42;;;;;;;0.80;0.80;;;;;;;;;;6223416;28;20195;-64
2023/08/08 14:32:43;;;;;;;1.13;0.70;;;;;;;;;;6232621;28;20374;-65
2023/08/08 14:35:44;;;;;;;1.30;0.70;;;;;;;;;;6214601;28;20195;-64
2023/08/08 14:38:45;;;;;;;2.90;0.80;;;;;;;;;;6225185;28;20298;-64
2023/08/08 14:41:46;;;;;;;2.07;0.87;;;;;;;;;;6217670;28;20222;-64
2023/08/08 14:44:47;;;;;;;1.27;0.90;;;;;;;;;;6217713;28;20191;-65
2023/08/08 14:47:48;;;;;;;0.67;0.67;;;;;;;;;;6234926;28;20223;-65
2023/08/08 14:50:49;;;;;;;1.90;0.93;;;;;;;;;;6219126;28;20191;-64
2023/08/08 14:53:50;;;;;;;0.77;0.67;;;;;;;;;;6229248;28;20214;-67
2023/08/08 14:56:51;;;;;;;2.03;1.13;;;;;;;;;;6236904;28;20191;-65
2023/08/08 14:59:52;;;;;;;1.23;0.80;;;;;;;;;;6212304;28;20191;-64
2023/08/08 15:02:53;;;;;;;1.87;0.73;;;;;;;;;;6216213;28;20203;-64
2023/08/08 15:05:55;;;;;;;1.30;0.73;;;;;;;;;;6219983;28;20219;-64
2023/08/08 15:08:55;;;;;;;1.00;0.90;;;;;;;;;;6225998;28;20187;-65
2023/08/08 15:11:57;;;;;;;1.40;0.67;;;;;;;;;;6222472;28;20248;-64
2023/08/08 15:14:58;;;;;;;1.33;0.93;;;;;;;;;;6219909;28;20234;-63
2023/08/08 15:17:59;;;;;;;3.67;1.00;;;;;;;;;;6220230;28;20193;-64
2023/08/08 15:21:00;;;;;;;1.20;0.73;;;;;;;;;;6215781;28;20201;-64
2023/08/08 15:24:01;;;;;;;1.83;1.10;;;;;;;;;;6226507;28;20196;-64
2023/08/08 15:27:03;;;;;;;4.30;0.93;;;;;;;;;;6236173;28;20211;-64
2023/08/08 15:30:05;;;;;;;0.80;0.80;;;;;;;;;;6234315;28;20223;-64
2023/08/08 15:33:06;;;;;;;1.00;0.90;;;;;;;;;;6224453;28;20282;-64
2023/08/08 15:36:07;;;;;;;0.70;0.70;;;;;;;;;;6234988;28;20187;-64
2023/08/08 15:39:08;;;;;;;4.17;1.00;;;;;;;;;;6215519;28;20265;-64
2023/08/08 15:42:09;;;;;;;2.93;0.90;;;;;;;;;;6217611;28;20193;-64
2023/08/08 15:45:12;;;;;;;1.90;1.13;;;;;;;;;;6198417;28;20200;-64
2023/08/08 15:48:13;;;;;;;1.07;0.87;;;;;;;;;;6219638;28;20229;-64
2023/08/08 15:51:14;;;;;;;2.37;1.00;;;;;;;;;;6236822;28;20233;-64
2023/08/08 15:54:15;;;;;;;3.37;0.90;;;;;;;;;;6216550;28;20480;-64
2023/08/08 15:57:16;;;;;;;1.37;0.80;;;;;;;;;;6237943;28;20203;-64
2023/08/08 16:00:18;;;;;;;0.80;0.80;;;;;;;;;;6214084;28;20191;-64
2023/08/08 16:03:19;;;;;;;0.80;0.70;;;;;;;;;;6213234;28;20196;-64
2023/08/08 16:06:20;;;;;;;2.40;0.97;;;;;;;;;;6231791;28;20215;-64
2023/08/08 16:09:22;;;;;;;1.40;0.90;;;;;;;;;;6207023;28;20199;-65
2023/08/08 16:12:24;;;;;;;1.07;0.80;;;;;;;;;;6216694;28;20198;-65
2023/08/08 16:15:25;;;;;;;0.97;0.60;;;;;;;;;;6231078;28;20250;-64
2023/08/08 16:18:26;;;;;;;1.77;0.93;;;;;;;;;;6237881;28;20190;-64
2023/08/08 16:21:27;;;;;;;0.90;0.80;;;;;;;;;;6220809;28;20293;-65
2023/08/08 16:24:28;;;;;;;0.80;0.80;;;;;;;;;;6211376;28;20197;-65
2023/08/08 16:27:29;;;;;;;0.60;0.60;;;;;;;;;;6230955;28;20220;-65
2023/08/08 16:30:30;;;;;;;2.57;0.93;;;;;;;;;;6220344;28;20223;-64
2023/08/08 16:33:31;;;;;;;1.33;0.70;;;;;;;;;;6232695;28;20205;-64
2023/08/08 16:36:32;;;;;;;1.63;0.70;;;;;;;;;;6214257;28;20263;-64
2023/08/08 16:39:33;;;;;;;0.97;0.73;;;;;;;;;;6230951;28;20259;-64
2023/08/08 16:42:34;;;;;;;0.83;0.83;;;;;;;;;;6212582;28;20260;-64
2023/08/08 16:45:35;;;;;;;0.70;0.70;;;;;;;;;;6240150;28;20209;-64
2023/08/08 16:48:36;;;;;;;0.90;0.80;;;;;;;;;;6217878;28;20208;-64
2023/08/08 16:51:37;;;;;;;1.17;0.70;;;;;;;;;;6223601;28;20207;-65
2023/08/08 16:54:40;;;;;;;1.13;0.80;;;;;;;;;;6222515;28;20326;-63
2023/08/08 16:57:41;;;;;;;1.30;0.93;;;;;;;;;;6213932;28;20188;-64
2023/08/08 17:00:42;;;;;;;1.20;0.90;;;;;;;;;;6218990;28;20187;-64
2023/08/08 17:03:43;;;;;;;0.90;0.63;;;;;;;;;;6239412;28;20190;-64
2023/08/08 17:06:44;;;;;;;1.20;0.80;;;;;;;;;;6218878;28;20211;-65
2023/08/08 17:09:46;;;;;;;2.70;0.90;;;;;;;;;;6236190;28;20274;-66
2023/08/08 17:12:47;;;;;;;0.93;0.70;;;;;;;;;;6222545;28;20187;-68
2023/08/08 17:15:49;;;;;;;1.07;0.63;;;;;;;;;;6222042;28;20226;-67
2023/08/08 17:18:52;;;;;;;1.23;0.80;;;;;;;;;;6218453;28;20202;-68
2023/08/08 17:21:56;;;;;;;0.57;0.57;;;;;;;;;;6222808;28;20198;-65
2023/08/08 17:24:57;;;;;;;0.80;0.80;;;;;;;;;;6202545;28;20203;-65
2023/08/08 17:27:58;;;;;;;2.37;0.73;;;;;;;;;;6234295;28;20217;-65
2023/08/08 17:31:00;;;;;;;0.80;0.80;;;;;;;;;;6222770;28;20244;-65
2023/08/08 17:34:05;;;;;;;1.27;0.63;;;;;;;;;;6217960;28;20203;-65
2023/08/08 17:37:06;;;;;;;2.60;1.10;;;;;;;;;;6241865;28;20183;-65
2023/08/08 17:40:09;;;;;;;2.27;0.90;;;;;;;;;;6201819;28;20196;-66
2023/08/08 17:43:10;;;;;;;3.27;1.20;;;;;;;;;;6228436;28;20191;-65
2023/08/08 17:46:12;;;;;;;3.73;0.97;;;;;;;;;;6239764;28;20221;-66
2023/08/08 17:49:13;;;;;;;2.13;0.87;;;;;;;;;;6222702;28;20194;-66
2023/08/08 17:52:14;;;;;;;1.20;1.00;;;;;;;;;;6240468;28;20175;-65
2023/08/08 17:55:17;;;;;;;2.47;1.00;;;;;;;;;;6221931;28;20291;-65
2023/08/08 17:58:19;;;;;;;1.53;0.90;;;;;;;;;;6216089;28;20252;-67
2023/08/08 18:01:21;;;;;;;1.33;0.87;;;;;;;;;;6238161;28;20214;-68
2023/08/08 18:04:22;;;;;;;1.50;0.90;;;;;;;;;;6234495;28;20195;-68
2023/08/08 18:07:24;;;;;;;2.57;1.07;;;;;;;;;;6232373;28;20226;-66